Time;durP1;ratioP1;P1;durP2;ratioP2;P2;SDS_P1;SDS_P2;PMS_P1;PMS_P2;Temp;Humidity;BMP_temperature;BMP_pressure;BME280_temperature;BME280_humidity;BME280_pressure;Samples;Min_cycle;Max_cycle;Signal;HPM_P1;HPM_P2
2022/04/26 03:36:55;;;;;;;18.73;9.03;;;;;;;8.87;100.00;99511.75;1744450;82;21210;-84
2022/04/26 03:40:01;;;;;;;17.60;9.00;;;;;;;9.06;100.00;99513.95;1745922;82;21400;-84
2022/04/26 03:43:08;;;;;;;20.08;8.93;;;;;;;9.24;100.00;99516.33;1728300;82;21198;-84
2022/04/26 03:46:14;;;;;;;13.28;8.73;;;;;;;9.43;100.00;99523.95;1766987;81;21189;-82
2022/04/26 03:49:21;;;;;;;23.55;11.40;;;;;;;9.66;100.00;99523.02;1771704;81;21148;-78
2022/04/26 03:52:28;;;;;;;21.70;10.43;;;;;;;9.87;100.00;99524.44;1770919;81;21789;-79
2022/04/26 03:55:33;;;;;;;25.90;10.85;;;;;;;10.08;100.00;99520.08;1771321;81;21212;-79
2022/04/26 03:58:39;;;;;;;20.40;10.10;;;;;;;10.26;100.00;99521.90;1770248;81;21761;-79
2022/04/26 04:01:45;;;;;;;24.12;10.03;;;;;;;10.46;100.00;99520.21;1771657;81;21567;-79
2022/04/26 04:04:51;;;;;;;21.90;9.18;;;;;;;10.69;100.00;99522.75;1769990;81;21156;-78
2022/04/26 04:07:57;;;;;;;13.98;8.38;;;;;;;10.92;100.00;99523.91;1755261;80;21216;-79
2022/04/26 04:11:03;;;;;;;16.07;7.47;;;;;;;11.13;100.00;99518.06;1769909;81;21185;-78
2022/04/26 04:14:14;;;;;;;14.03;6.97;;;;;;;11.32;99.62;99517.35;1769844;81;21749;-79
2022/04/26 04:17:20;;;;;;;14.53;6.58;;;;;;;11.49;98.75;99518.73;1770505;81;21817;-78
2022/04/26 04:20:29;;;;;;;9.63;6.35;;;;;;;11.70;97.62;99523.80;1771141;81;21192;-79
2022/04/26 04:23:34;;;;;;;13.18;7.05;;;;;;;11.89;96.75;99523.08;1770197;81;21244;-79
2022/04/26 04:26:40;;;;;;;12.80;7.10;;;;;;;12.13;95.55;99523.59;1770886;81;21208;-79
2022/04/26 04:29:47;;;;;;;9.85;6.42;;;;;;;12.32;94.74;99527.45;1757159;80;21185;-79
2022/04/26 04:32:54;;;;;;;14.00;6.80;;;;;;;12.49;93.79;99521.37;1734292;82;21236;-79
2022/04/26 04:35:59;;;;;;;12.20;6.92;;;;;;;12.67;93.36;99524.06;1735246;82;21181;-79
2022/04/26 04:39:06;;;;;;;10.68;6.40;;;;;;;12.80;92.48;99526.82;1735488;82;21403;-79
2022/04/26 04:42:14;;;;;;;10.78;6.50;;;;;;;12.96;92.27;99532.41;1734813;82;21572;-79
2022/04/26 04:45:21;;;;;;;14.70;6.75;;;;;;;13.12;91.89;99531.98;1735042;82;21213;-79
2022/04/26 04:48:27;;;;;;;14.10;6.83;;;;;;;13.35;91.34;99531.57;1733909;82;21169;-80
2022/04/26 04:51:33;;;;;;;12.50;6.58;;;;;;;13.58;91.00;99534.39;1734969;82;21130;-79
2022/04/26 04:54:38;;;;;;;13.20;6.25;;;;;;;13.72;90.17;99539.64;1735035;82;21221;-80
2022/04/26 04:57:44;;;;;;;18.75;7.37;;;;;;;13.85;90.30;99544.27;1734081;81;21209;-78
2022/04/26 05:00:50;;;;;;;14.18;6.97;;;;;;;14.04;89.90;99540.59;1734766;82;21265;-78
2022/04/26 05:03:57;;;;;;;9.48;5.70;;;;;;;14.19;89.74;99543.07;1735303;82;21206;-79
2022/04/26 05:07:03;;;;;;;14.78;7.03;;;;;;;14.32;89.70;99537.52;1735285;82;21232;-79
2022/04/26 05:10:09;;;;;;;17.30;6.37;;;;;;;14.46;89.08;99534.16;1735289;82;21182;-79
2022/04/26 05:13:15;;;;;;;15.20;6.42;;;;;;;14.62;87.88;99542.98;1734137;82;21223;-79
2022/04/26 05:16:21;;;;;;;11.08;6.35;;;;;;;14.78;87.50;99546.06;1733072;81;21214;-79
2022/04/26 05:19:27;;;;;;;10.00;5.95;;;;;;;14.96;87.56;99549.44;1737041;81;21150;-80
2022/04/26 05:24:53;;;;;;;12.13;6.12;;;;;;;15.16;87.57;99543.77;1739134;81;21586;-79
2022/04/26 05:25:45;;;;;;;17.40;6.75;;;;;;;15.33;86.95;99542.11;1729196;81;21208;-79
2022/04/26 05:28:51;;;;;;;10.28;5.90;;;;;;;15.53;86.14;99543.86;1730602;81;21169;-79
2022/04/26 05:31:57;;;;;;;11.18;5.87;;;;;;;15.72;85.63;99547.52;1753260;79;21205;-79
2022/04/26 05:35:06;;;;;;;14.35;6.33;;;;;;;15.86;84.78;99548.22;1729520;81;21785;-79
2022/04/26 05:38:11;;;;;;;13.10;5.05;;;;;;;16.00;84.18;99546.99;1729682;81;21243;-79
2022/04/26 05:41:18;;;;;;;12.98;6.05;;;;;;;16.14;82.32;99543.51;1730231;83;21184;-79
2022/04/26 05:44:24;;;;;;;9.93;5.30;;;;;;;16.27;82.02;99547.48;1731610;81;21808;-79
2022/04/26 05:47:32;;;;;;;11.25;4.78;;;;;;;16.39;81.39;99540.12;1745767;81;21233;-79
2022/04/26 05:50:39;;;;;;;8.73;4.67;;;;;;;16.53;79.88;99544.38;1734672;82;21197;-79
2022/04/26 05:53:46;;;;;;;9.38;4.55;;;;;;;16.67;79.25;99546.42;1733638;82;21209;-79
2022/04/26 05:56:55;;;;;;;10.50;4.28;;;;;;;16.85;78.84;99542.80;1733580;81;21705;-79
2022/04/26 06:00:04;;;;;;;12.82;4.78;;;;;;;17.00;77.27;99549.25;1735347;82;21842;-79
2022/04/26 06:03:10;;;;;;;10.72;4.70;;;;;;;17.08;77.48;99548.92;1741618;81;21165;-79
2022/04/26 06:06:17;;;;;;;12.07;3.95;;;;;;;17.18;78.24;99543.65;1734759;82;21149;-79
2022/04/26 06:09:24;;;;;;;11.18;3.98;;;;;;;17.36;76.75;99545.45;1730929;81;21804;-80
2022/04/26 06:12:26;;;;;;;8.90;4.20;;;;;;;17.55;74.17;99547.05;1729818;83;21212;-80
2022/04/26 06:15:33;;;;;;;8.38;4.35;;;;;;;17.73;73.71;99549.36;1747333;81;21175;-80
2022/04/26 06:18:42;;;;;;;8.20;3.62;;;;;;;17.91;71.62;99553.41;1758928;81;21516;-81
2022/04/26 06:21:48;;;;;;;13.25;3.80;;;;;;;18.10;70.26;99557.70;1736057;81;21240;-80
2022/04/26 06:24:55;;;;;;;9.05;4.08;;;;;;;18.26;70.37;99551.97;1737884;81;21684;-79
2022/04/26 06:28:00;;;;;;;8.13;3.80;;;;;;;18.43;69.27;99552.02;1745476;81;21198;-79
2022/04/26 06:31:07;;;;;;;7.47;3.00;;;;;;;18.57;67.93;99552.03;1746087;80;21467;-79
2022/04/26 06:34:13;;;;;;;9.75;3.83;;;;;;;18.72;67.62;99547.91;1767289;81;21165;-79
2022/04/26 06:37:19;;;;;;;7.83;3.40;;;;;;;18.82;64.13;99553.63;1761416;81;21836;-79
2022/04/26 06:40:26;;;;;;;8.83;3.37;;;;;;;18.91;65.52;99550.75;1745671;82;21190;-79
2022/04/26 06:43:34;;;;;;;6.12;3.05;;;;;;;19.02;65.27;99550.41;1744433;82;21241;-79
2022/04/26 06:46:39;;;;;;;10.75;3.25;;;;;;;19.12;64.28;99547.27;1752591;80;21255;-80
2022/04/26 06:49:39;;;;;;;5.83;2.75;;;;;;;19.23;63.87;99539.95;1768196;80;21812;-79
2022/04/26 06:52:45;;;;;;;6.17;2.90;;;;;;;19.37;63.70;99545.45;1753502;80;21772;-79
2022/04/26 06:55:51;;;;;;;7.47;2.27;;;;;;;19.48;62.26;99546.48;1752321;80;21192;-85
2022/04/26 06:58:58;;;;;;;10.95;2.83;;;;;;;19.58;60.37;99549.41;1759046;80;21160;-79
2022/04/26 07:02:22;;;;;;;5.58;2.33;;;;;;;19.63;60.35;99541.20;1687705;83;21846;-85
2022/04/26 07:05:29;;;;;;;9.75;2.60;;;;;;;19.74;59.38;99538.57;1683940;85;21203;-79
2022/04/26 07:08:36;;;;;;;8.33;2.70;;;;;;;19.79;59.76;99538.64;1701517;83;21223;-79
2022/04/26 07:11:46;;;;;;;6.25;3.27;;;;;;;19.85;59.90;99543.16;1684909;85;21730;-79
2022/04/26 07:14:51;;;;;;;8.48;3.25;;;;;;;19.92;61.30;99549.38;1686578;83;21229;-79
2022/04/26 07:17:57;;;;;;;5.80;2.55;;;;;;;20.03;60.17;99542.86;1689531;84;21276;-79
2022/04/26 07:20:59;;;;;;;5.80;2.55;;;;;;;20.12;59.13;99549.66;1689351;84;21344;-80
2022/04/26 07:24:04;;;;;;;9.10;2.50;;;;;;;20.15;56.02;99549.15;1661788;85;22307;-80
2022/04/26 07:27:11;;;;;;;9.23;2.62;;;;;;;20.16;57.06;99548.59;1683510;83;21203;-78
2022/04/26 07:30:18;;;;;;;5.47;2.95;;;;;;;20.25;57.60;99544.28;1659405;85;21699;-79
2022/04/26 07:36:48;;;;;;;7.40;2.72;;;;;;;20.36;56.78;99547.45;1688989;85;22066;-79
2022/04/26 07:39:55;;;;;;;6.10;2.70;;;;;;;20.38;57.84;99550.84;1685525;85;21184;-84
2022/04/26 07:43:02;;;;;;;6.28;2.70;;;;;;;20.39;56.56;99545.56;1685721;85;21876;-84
2022/04/26 07:46:09;;;;;;;6.70;2.80;;;;;;;20.44;56.58;99544.78;1685125;85;21204;-84
2022/04/26 07:49:15;;;;;;;9.68;3.10;;;;;;;20.48;57.10;99542.37;1684267;85;21252;-84
2022/04/26 07:52:23;;;;;;;7.12;2.65;;;;;;;20.52;57.27;99548.53;1684267;83;21216;-84
2022/04/26 07:55:29;;;;;;;5.20;2.50;;;;;;;20.58;58.12;99548.88;1684407;85;21200;-85
2022/04/26 07:58:35;;;;;;;5.87;2.85;;;;;;;20.61;55.92;99558.64;1683285;84;21525;-84
2022/04/26 08:01:40;;;;;;;7.42;2.35;;;;;;;20.64;55.51;99554.77;1690074;82;21221;-85
2022/04/26 08:04:47;;;;;;;7.40;2.30;;;;;;;20.66;53.67;99552.59;1710071;83;21581;-85
2022/04/26 08:07:54;;;;;;;10.80;2.52;;;;;;;20.67;54.56;99538.97;1718939;82;21201;-83
2022/04/26 08:11:00;;;;;;;4.70;2.50;;;;;;;20.76;53.88;99546.85;1718856;83;21201;-83
2022/04/26 08:14:06;;;;;;;7.10;2.37;;;;;;;20.78;53.91;99547.41;1718319;83;21222;-83
2022/04/26 08:17:15;;;;;;;4.95;2.50;;;;;;;20.80;53.41;99543.84;1718691;82;21246;-84
2022/04/26 08:20:22;;;;;;;7.85;2.62;;;;;;;20.77;54.23;99546.58;1717644;83;21781;-84
2022/04/26 08:23:27;;;;;;;4.85;2.10;;;;;;;20.80;53.41;99544.67;1717625;83;21261;-84
2022/04/26 08:29:58;;;;;;;6.05;2.15;;;;;;;20.92;53.25;99545.89;1716607;83;21299;-84
2022/04/26 08:33:03;;;;;;;8.40;1.90;;;;;;;20.95;51.67;99545.38;1712673;82;21277;-83
2022/04/26 08:36:09;;;;;;;4.40;2.02;;;;;;;20.98;51.52;99542.61;1718550;83;21209;-85
2022/04/26 08:39:15;;;;;;;4.22;1.85;;;;;;;21.01;51.58;99548.48;1719776;83;21151;-85
2022/04/26 08:42:20;;;;;;;6.53;2.30;;;;;;;21.08;51.26;99546.34;1719009;83;21767;-85
2022/04/26 08:45:28;;;;;;;5.60;2.58;;;;;;;21.09;50.77;99549.41;1704520;82;21347;-85
2022/04/26 08:51:59;;;;;;;7.78;2.90;;;;;;;21.13;52.61;99558.91;1717836;83;21782;-85
2022/04/26 08:55:06;;;;;;;7.42;2.60;;;;;;;21.16;51.82;99547.23;1717385;83;21257;-85
2022/04/26 08:58:14;;;;;;;6.08;3.20;;;;;;;21.19;51.43;99550.05;1681127;83;21186;-85
2022/04/26 09:01:26;;;;;;;7.85;3.60;;;;;;;21.21;50.51;99546.99;1717439;83;21559;-84
2022/04/26 09:04:33;;;;;;;8.55;3.70;;;;;;;21.20;46.83;99551.72;1689876;83;21746;-85
2022/04/26 09:07:40;;;;;;;12.47;3.77;;;;;;;21.17;48.42;99555.89;1679501;85;21254;-84
2022/04/26 09:10:47;;;;;;;8.90;4.05;;;;;;;21.16;47.46;99560.30;1686571;84;21215;-85
2022/04/26 09:13:52;;;;;;;9.28;2.90;;;;;;;21.09;46.94;99556.91;1658853;85;21438;-84
2022/04/26 09:17:12;;;;;;;4.17;1.98;;;;;;;21.06;48.06;99559.66;1651369;85;21308;-84
2022/04/26 09:20:18;;;;;;;5.45;1.98;;;;;;;21.05;46.57;99559.92;1671743;85;21929;-84
2022/04/26 09:23:28;;;;;;;2.10;1.10;;;;;;;21.06;47.00;99558.27;1677798;85;21623;-84
2022/04/26 09:26:27;;;;;;;11.08;2.00;;;;;;;21.07;44.55;99560.48;1667295;85;21264;-84
2022/04/26 09:29:36;;;;;;;2.12;1.10;;;;;;;21.08;47.65;99565.81;1672393;85;21798;-84
2022/04/26 09:32:55;;;;;;;3.77;1.42;;;;;;;21.16;47.37;99558.91;1678042;85;21906;-84
2022/04/26 09:36:13;;;;;;;1.60;0.93;;;;;;;21.17;45.95;99568.40;1688858;85;21200;-84
2022/04/26 09:39:21;;;;;;;3.87;1.30;;;;;;;21.14;45.70;99553.63;1688667;85;21779;-84
2022/04/26 09:42:41;;;;;;;5.05;1.30;;;;;;;21.09;45.97;99553.58;1665370;85;21163;-84
2022/04/26 09:46:01;;;;;;;5.35;1.27;;;;;;;21.12;46.80;99557.20;1689227;83;21789;-84
2022/04/26 09:49:14;;;;;;;4.78;1.40;;;;;;;21.16;45.70;99546.39;1652059;87;21233;-84
2022/04/26 09:52:19;;;;;;;3.90;1.35;;;;;;;21.16;47.79;99545.84;1638602;85;21228;-83
2022/04/26 09:55:27;;;;;;;3.52;1.20;;;;;;;21.17;47.90;99547.55;1675703;85;21236;-84
2022/04/26 09:58:37;;;;;;;5.87;1.17;;;;;;;21.22;48.04;99545.36;1678739;84;21240;-84
2022/04/26 10:01:53;;;;;;;1.70;1.15;;;;;;;21.25;45.78;99550.38;1678988;85;21762;-79
2022/04/26 10:04:59;;;;;;;2.70;1.10;;;;;;;21.28;45.92;99547.62;1670487;84;21233;-79
2022/04/26 10:08:05;;;;;;;3.55;1.37;;;;;;;21.30;44.16;99549.58;1703400;84;21226;-80
2022/04/26 10:11:17;;;;;;;2.90;1.25;;;;;;;21.27;43.20;99551.52;1703920;84;21277;-84
2022/04/26 10:14:19;;;;;;;4.55;1.30;;;;;;;21.23;43.80;99550.37;1702669;84;21858;-80
2022/04/26 10:17:30;;;;;;;10.03;1.50;;;;;;;21.22;45.09;99554.23;1703870;84;21238;-79
2022/04/26 10:20:47;;;;;;;2.10;1.10;;;;;;;21.24;45.88;99554.81;1704191;84;21729;-84
2022/04/26 10:24:07;;;;;;;2.00;1.20;;;;;;;21.28;44.09;99553.19;1703323;83;21210;-84
2022/04/26 10:27:30;;;;;;;4.55;1.50;;;;;;;21.27;45.89;99562.64;1704737;84;21230;-84
2022/04/26 10:31:03;;;;;;;5.30;1.50;;;;;;;21.25;46.04;99550.92;1686688;84;21764;-85
2022/04/26 10:34:08;;;;;;;2.92;1.15;;;;;;;21.27;47.08;99557.08;1639606;87;21869;-85
2022/04/26 10:37:23;;;;;;;3.92;1.05;;;;;;;21.31;45.34;99551.28;1632352;86;21247;-85
2022/04/26 10:40:30;;;;;;;7.05;1.40;;;;;;;21.32;45.08;99555.77;1632202;87;21212;-84
2022/04/26 10:43:41;;;;;;;6.95;1.30;;;;;;;21.31;45.34;99553.51;1633150;88;21873;-84
2022/04/26 10:47:11;;;;;;;5.00;2.00;;;;;;;21.29;45.63;99554.30;1632919;88;21343;-84
2022/04/26 10:50:17;;;;;;;;;;;;;;;21.31;46.49;99552.12;1616860;88;21198;-84
2022/04/26 10:53:47;;;;;;;6.50;1.52;;;;;;;21.37;45.36;99548.85;1632150;88;20209;-84
2022/04/26 10:56:54;;;;;;;2.55;1.27;;;;;;;21.36;45.97;99552.71;1632078;87;21246;-84
2022/04/26 11:00:27;;;;;;;7.15;1.57;;;;;;;21.38;45.81;99550.52;1633481;86;21214;-85
2022/04/26 11:03:34;;;;;;;4.70;1.22;;;;;;;21.42;45.96;99542.77;1666926;85;21261;-84
2022/04/26 11:06:47;;;;;;;5.62;1.50;;;;;;;21.47;44.20;99542.53;1714673;83;21184;-84
2022/04/26 11:09:57;;;;;;;3.60;1.45;;;;;;;21.48;44.17;99545.59;1678814;85;21232;-84
2022/04/26 11:13:03;;;;;;;2.40;1.25;;;;;;;21.49;45.78;99549.48;1713469;83;21204;-84
2022/04/26 11:16:18;;;;;;;4.42;1.27;;;;;;;21.50;44.50;99548.41;1678503;84;21189;-85
2022/04/26 11:19:24;;;;;;;5.33;1.40;;;;;;;21.51;45.20;99540.89;1714384;83;21165;-85
2022/04/26 11:22:31;;;;;;;6.30;1.30;;;;;;;21.50;46.04;99542.84;1664351;85;21825;-84
2022/04/26 11:29:01;;;;;;;7.85;1.45;;;;;;;21.53;46.66;99538.12;1678356;85;21801;-84
2022/04/26 11:32:09;;;;;;;4.58;1.42;;;;;;;21.58;46.96;99540.93;1714121;83;21790;-84
2022/04/26 11:35:21;;;;;;;5.87;1.70;;;;;;;21.60;46.19;99542.08;1678502;85;21213;-84
2022/04/26 11:38:27;;;;;;;3.67;1.60;;;;;;;21.60;46.26;99529.00;1698025;83;21282;-84
2022/04/26 11:41:32;;;;;;;3.05;1.10;;;;;;;21.60;45.57;99529.55;1679715;85;21738;-84
2022/04/26 11:44:35;;;;;;;4.03;1.50;;;;;;;21.59;43.26;99530.08;1714755;82;21826;-85
2022/04/26 11:47:27;;;;;;;7.42;1.57;;;;;;;21.58;44.42;99526.19;1719209;83;21261;-85
2022/04/26 11:50:28;;;;;;;4.08;1.52;;;;;;;21.60;46.27;99522.05;1719623;83;21209;-85
2022/04/26 11:53:25;;;;;;;5.83;1.87;;;;;;;21.63;46.46;99520.09;1718430;83;21859;-84
2022/04/26 11:56:30;;;;;;;6.70;1.80;;;;;;;21.65;45.03;99524.02;1684992;85;21174;-84
2022/04/26 11:59:35;;;;;;;4.53;1.42;;;;;;;21.60;43.47;99523.44;1655169;85;21756;-84
2022/04/26 12:02:43;;;;;;;4.47;1.30;;;;;;;21.57;43.54;99519.78;1678342;85;21277;-85
2022/04/26 12:05:50;;;;;;;7.17;1.27;;;;;;;21.54;43.87;99522.25;1678194;84;21197;-85
2022/04/26 12:09:01;;;;;;;8.35;1.20;;;;;;;21.52;44.48;99519.75;1712919;83;21209;-84
2022/04/26 12:11:59;;;;;;;4.17;1.35;;;;;;;21.52;45.23;99528.09;1678322;84;21243;-85
2022/04/26 12:14:46;;;;;;;4.95;1.60;;;;;;;21.52;45.04;99521.14;1713725;83;21220;-85
2022/04/26 12:17:38;;;;;;;5.90;2.12;;;;;;;21.50;43.92;99523.37;1640443;85;21260;-85
2022/04/26 12:20:25;;;;;;;7.35;1.52;;;;;;;21.50;43.32;99516.94;1714332;83;21713;-85
2022/04/26 12:23:17;;;;;;;3.12;1.42;;;;;;;21.49;44.65;99517.48;1678271;85;21252;-85
2022/04/26 12:26:24;;;;;;;7.53;1.60;;;;;;;21.55;44.89;99516.97;1716945;83;21769;-85
2022/04/26 12:29:24;;;;;;;10.48;1.65;;;;;;;21.64;44.35;99522.32;1679871;83;21189;-85
2022/04/26 12:32:31;;;;;;;6.72;1.50;;;;;;;21.68;44.05;99522.91;1713773;83;21255;-85
2022/04/26 12:35:37;;;;;;;6.33;1.85;;;;;;;21.74;43.99;99514.59;1679776;85;21197;-84
2022/04/26 12:38:55;;;;;;;4.90;1.30;;;;;;;21.77;44.72;99525.20;1712617;83;21785;-85
2022/04/26 12:42:02;;;;;;;8.13;1.45;;;;;;;21.78;42.85;99515.73;1679609;85;22100;-84
2022/04/26 12:45:12;;;;;;;9.15;1.87;;;;;;;21.75;42.87;99521.86;1712958;83;21177;-84
2022/04/26 12:51:43;;;;;;;13.75;2.15;;;;;;;21.75;42.86;99517.68;1714023;83;21168;-84
2022/04/26 12:54:52;;;;;;;4.30;1.20;;;;;;;21.74;43.17;99515.45;1679559;85;21798;-85
2022/04/26 12:57:58;;;;;;;5.25;1.47;;;;;;;21.74;43.87;99512.67;1698440;83;21216;-85
2022/04/26 13:01:04;;;;;;;5.78;1.40;;;;;;;21.76;44.02;99511.00;1678389;84;21201;-84
2022/04/26 13:04:11;;;;;;;4.60;1.20;;;;;;;21.75;43.06;99516.29;1713989;83;21228;-85
2022/04/26 13:07:18;;;;;;;6.42;1.17;;;;;;;21.73;43.30;99511.53;1675499;85;21220;-85
2022/04/26 13:10:25;;;;;;;3.42;1.15;;;;;;;21.71;43.20;99510.97;1666727;85;21834;-85
2022/04/26 13:13:32;;;;;;;3.00;1.10;;;;;;;21.64;43.26;99514.84;1666828;85;21256;-84
2022/04/26 13:16:38;;;;;;;6.42;1.40;;;;;;;21.55;43.73;99509.48;1667856;86;21747;-85
2022/04/26 13:19:45;;;;;;;1.85;1.07;;;;;;;21.44;44.22;99504.38;1666651;85;21782;-84
2022/04/26 13:22:52;;;;;;;2.80;1.10;;;;;;;21.37;43.80;99511.30;1667098;86;21267;-84
2022/04/26 13:25:58;;;;;;;5.20;1.20;;;;;;;21.32;44.06;99515.44;1666907;86;21727;-84
2022/04/26 13:29:05;;;;;;;7.45;1.85;;;;;;;21.31;46.22;99512.34;1666927;86;21735;-84
2022/04/26 13:32:13;;;;;;;4.47;1.30;;;;;;;21.28;44.14;99517.87;1666919;85;21237;-85
2022/04/26 13:35:26;;;;;;;4.47;1.40;;;;;;;21.26;43.95;99527.02;1667135;85;21233;-79
2022/04/26 13:38:31;;;;;;;4.95;1.95;;;;;;;21.25;43.20;99521.73;1667212;86;21225;-79
2022/04/26 13:41:37;;;;;;;4.03;1.20;;;;;;;21.23;42.67;99527.56;1666867;86;21170;-85
2022/04/26 13:44:45;;;;;;;7.70;1.47;;;;;;;21.22;42.96;99531.98;1666936;86;21746;-83
2022/04/26 13:47:51;;;;;;;6.72;1.50;;;;;;;21.19;42.62;99525.86;1667215;86;21601;-84
2022/04/26 13:50:58;;;;;;;4.67;1.50;;;;;;;21.18;42.99;99526.13;1668035;86;21265;-84
2022/04/26 13:54:05;;;;;;;4.67;1.52;;;;;;;21.17;43.71;99524.43;1668017;86;21201;-83
2022/04/26 13:57:11;;;;;;;6.67;2.15;;;;;;;21.14;44.68;99523.03;1667655;86;21223;-84
2022/04/26 14:00:18;;;;;;;2.35;1.10;;;;;;;21.13;45.32;99524.14;1667981;86;21217;-85
2022/04/26 14:03:27;;;;;;;8.95;1.52;;;;;;;21.09;45.05;99518.83;1667064;86;21297;-84
2022/04/26 14:06:33;;;;;;;7.22;2.52;;;;;;;21.00;45.79;99527.91;1667813;86;21366;-84
2022/04/26 14:09:38;;;;;;;5.83;2.10;;;;;;;20.89;44.64;99526.98;1667173;85;21213;-85
2022/04/26 14:12:44;;;;;;;5.03;2.05;;;;;;;20.81;44.58;99521.34;1667730;86;21233;-85
2022/04/26 14:22:43;;;;;;;4.90;1.55;;;;;;;20.78;45.32;99530.19;1668279;86;21190;-84
2022/04/26 14:25:50;;;;;;;7.00;1.42;;;;;;;20.71;44.53;99521.80;1666743;85;21249;-85
2022/04/26 14:28:55;;;;;;;4.12;1.20;;;;;;;20.67;44.19;99527.86;1668253;86;21735;-85
2022/04/26 14:32:02;;;;;;;6.40;1.40;;;;;;;20.73;44.20;99525.13;1668100;86;21213;-84
2022/04/26 14:35:08;;;;;;;3.80;1.35;;;;;;;20.81;44.91;99526.89;1666412;86;21205;-85
2022/04/26 14:38:14;;;;;;;5.50;1.20;;;;;;;20.89;44.15;99534.77;1666477;85;21186;-85
2022/04/26 14:41:19;;;;;;;7.30;1.27;;;;;;;20.95;44.57;99541.77;1666634;86;21742;-84
2022/04/26 14:44:26;;;;;;;6.97;1.45;;;;;;;20.93;44.67;99532.27;1668144;86;22181;-85
2022/04/26 14:47:33;;;;;;;8.05;2.35;;;;;;;20.86;45.01;99540.84;1667584;86;21806;-85
2022/04/26 14:50:39;;;;;;;2.77;1.00;;;;;;;20.75;45.77;99539.59;1668164;86;21782;-85
2022/04/26 14:53:46;;;;;;;4.05;1.12;;;;;;;20.61;45.46;99537.25;1667574;86;21245;-85
2022/04/26 14:56:53;;;;;;;5.80;1.47;;;;;;;20.50;45.39;99538.21;1666811;86;21217;-85
2022/04/26 15:00:00;;;;;;;12.25;1.27;;;;;;;20.39;45.65;99540.01;1666940;85;21189;-85
2022/04/26 15:03:06;;;;;;;6.45;1.05;;;;;;;20.28;45.54;99542.38;1667016;86;21213;-85
2022/04/26 15:06:13;;;;;;;3.98;1.30;;;;;;;20.16;45.40;99545.27;1666670;85;21778;-85
2022/04/26 15:19:32;;;;;;;4.80;1.10;;;;;;;19.89;46.77;99541.01;1656260;86;21202;-85
2022/04/26 15:22:38;;;;;;;7.35;1.30;;;;;;;19.78;47.37;99543.91;1655214;86;21257;-85
2022/04/26 15:25:52;;;;;;;8.63;1.50;;;;;;;19.65;47.85;99544.55;1710808;83;21768;-85
2022/04/26 15:28:59;;;;;;;4.28;1.10;;;;;;;19.53;48.49;99552.66;1712219;83;21226;-85
2022/04/26 15:32:06;;;;;;;4.80;1.17;;;;;;;19.41;48.90;99552.19;1711810;83;21258;-84
2022/04/26 15:35:14;;;;;;;4.25;1.32;;;;;;;19.34;49.47;99552.08;1712074;83;21234;-85
2022/04/26 15:38:20;;;;;;;7.53;1.75;;;;;;;19.32;49.90;99559.79;1711258;83;21170;-85
2022/04/26 15:41:32;;;;;;;7.83;1.77;;;;;;;19.32;49.87;99554.25;1712079;83;21186;-85
2022/04/26 15:44:36;;;;;;;7.35;1.65;;;;;;;19.35;49.25;99552.37;1712975;82;21162;-85
2022/04/26 15:47:42;;;;;;;6.55;1.65;;;;;;;19.38;49.08;99554.61;1715704;82;21766;-85
2022/04/26 15:50:48;;;;;;;2.67;1.02;;;;;;;19.39;48.48;99555.77;1717442;83;21182;-84
2022/04/26 15:53:54;;;;;;;6.80;1.37;;;;;;;19.37;48.25;99557.10;1716773;83;21253;-84
2022/04/26 15:57:01;;;;;;;12.40;2.67;;;;;;;19.28;48.16;99560.83;1716207;83;21246;-84
2022/04/26 16:00:07;;;;;;;5.85;1.17;;;;;;;19.17;48.24;99563.15;1731732;81;21252;-83
2022/04/26 16:03:14;;;;;;;5.70;1.57;;;;;;;19.05;48.72;99567.36;1752760;81;21208;-85
2022/04/26 16:06:14;;;;;;;7.10;1.72;;;;;;;18.95;49.15;99570.50;1752419;81;21168;-85
2022/04/26 16:22:42;;;;;;;4.37;1.20;;;;;;;18.42;50.77;99586.34;1724455;83;21219;-85
2022/04/26 16:25:48;;;;;;;8.83;1.70;;;;;;;18.33;51.20;99586.42;1689345;85;21833;-85
2022/04/26 16:28:54;;;;;;;9.33;1.60;;;;;;;18.22;51.75;99590.91;1722805;83;21204;-84
2022/04/26 16:31:59;;;;;;;7.97;1.45;;;;;;;18.06;52.47;99588.33;1689380;85;21252;-84
2022/04/26 16:35:06;;;;;;;8.25;1.37;;;;;;;17.94;53.01;99590.83;1689357;85;21188;-84
2022/04/26 16:38:13;;;;;;;7.75;1.60;;;;;;;17.82;53.97;99601.88;1688768;85;21224;-84
2022/04/26 16:41:18;;;;;;;3.62;1.50;;;;;;;17.67;54.36;99599.57;1689512;85;21221;-79
2022/04/26 16:44:25;;;;;;;8.93;1.70;;;;;;;17.52;54.89;99601.42;1689028;83;21216;-79
2022/04/26 16:47:32;;;;;;;2.87;1.40;;;;;;;17.37;55.76;99614.33;1718418;83;21226;-79
2022/04/26 16:50:38;;;;;;;6.20;1.80;;;;;;;17.21;56.23;99616.92;1718543;83;21649;-84
2022/04/26 16:53:44;;;;;;;7.75;1.35;;;;;;;17.03;57.04;99620.08;1717795;83;21751;-79
2022/04/26 16:56:51;;;;;;;4.47;1.42;;;;;;;16.88;57.92;99632.06;1717355;83;21623;-85
2022/04/26 16:59:57;;;;;;;5.40;1.50;;;;;;;16.71;58.83;99636.55;1718365;83;21218;-85
2022/04/26 17:03:04;;;;;;;10.72;1.90;;;;;;;16.54;59.49;99637.16;1717514;83;21197;-85
2022/04/26 17:06:11;;;;;;;8.18;1.57;;;;;;;16.39;60.29;99635.34;1718972;83;21214;-85
2022/04/26 17:09:20;;;;;;;9.65;1.77;;;;;;;16.25;61.11;99642.09;1719256;83;21850;-85
2022/04/26 17:12:30;;;;;;;14.18;1.77;;;;;;;16.11;61.90;99641.38;1702256;83;21274;-85
2022/04/26 17:15:36;;;;;;;7.78;2.02;;;;;;;15.99;62.35;99643.20;1696926;84;21199;-85
2022/04/26 17:18:42;;;;;;;13.48;1.60;;;;;;;15.90;62.63;99644.56;1697012;84;21562;-85
2022/04/26 17:21:49;;;;;;;10.18;2.05;;;;;;;15.83;63.31;99648.77;1696250;84;21250;-85
2022/04/26 17:25:15;;;;;;;9.78;2.02;;;;;;;15.75;63.98;99651.27;1696613;84;22126;-84
2022/04/26 17:28:23;;;;;;;7.15;2.20;;;;;;;15.70;64.94;99653.02;1695088;84;21227;-85
2022/04/26 17:31:30;;;;;;;7.03;1.70;;;;;;;15.64;66.07;99659.45;1695237;83;21203;-85
2022/04/26 17:34:36;;;;;;;9.23;2.10;;;;;;;15.54;66.53;99661.30;1696779;84;21191;-85
2022/04/26 17:37:37;;;;;;;11.08;2.92;;;;;;;15.49;66.98;99667.48;1696321;84;21218;-84
2022/04/26 17:40:43;;;;;;;20.43;3.20;;;;;;;15.43;67.98;99676.66;1696318;84;21187;-79
2022/04/26 17:43:52;;;;;;;23.70;3.67;;;;;;;15.36;68.67;99682.73;1696451;84;21231;-79
2022/04/26 17:47:01;;;;;;;16.85;3.77;;;;;;;15.29;69.69;99681.92;1696339;84;21771;-79
2022/04/26 17:50:08;;;;;;;11.88;3.22;;;;;;;15.21;70.21;99691.84;1695863;84;21183;-79
2022/04/26 17:56:40;;;;;;;15.43;3.62;;;;;;;15.05;71.25;99693.20;1696939;84;21522;-79
2022/04/26 17:59:46;;;;;;;8.90;3.30;;;;;;;14.98;71.54;99693.78;1696331;84;21195;-79
2022/04/26 18:02:51;;;;;;;12.47;3.25;;;;;;;14.90;72.13;99697.62;1696306;84;21227;-79
2022/04/26 18:05:57;;;;;;;15.75;3.83;;;;;;;14.85;71.28;99710.36;1696507;84;21227;-79
2022/04/26 18:09:03;;;;;;;12.78;2.50;;;;;;;14.80;71.53;99713.77;1695077;84;21231;-79
2022/04/26 18:12:12;;;;;;;7.78;2.47;;;;;;;14.76;71.30;99716.10;1695276;82;21260;-79
2022/04/26 18:15:17;;;;;;;11.25;2.92;;;;;;;14.72;71.58;99716.75;1696786;84;21186;-79
2022/04/26 18:18:24;;;;;;;6.20;2.80;;;;;;;14.66;71.37;99714.34;1696827;84;21206;-79
2022/04/26 18:21:29;;;;;;;10.05;2.70;;;;;;;14.60;71.56;99717.98;1696603;84;21179;-79
2022/04/26 18:24:34;;;;;;;11.08;3.65;;;;;;;14.54;71.94;99719.69;1696887;84;21183;-79
2022/04/26 18:27:39;;;;;;;8.58;2.70;;;;;;;14.47;72.70;99722.95;1696432;84;21796;-79
2022/04/26 18:30:45;;;;;;;9.85;2.72;;;;;;;14.40;72.97;99730.92;1696369;84;21231;-79
2022/04/26 18:33:51;;;;;;;10.88;2.72;;;;;;;14.31;72.42;99728.39;1696574;84;21220;-79
2022/04/26 18:36:57;;;;;;;12.58;3.37;;;;;;;14.27;72.45;99737.29;1695054;84;21222;-79
2022/04/26 18:40:02;;;;;;;10.95;2.92;;;;;;;14.24;72.58;99737.17;1696625;84;21207;-79
2022/04/26 18:43:09;;;;;;;12.18;3.50;;;;;;;14.20;72.79;99742.78;1696795;84;21252;-79
2022/04/26 18:46:15;;;;;;;10.30;3.35;;;;;;;14.17;72.54;99739.64;1696678;84;21204;-79
2022/04/26 18:49:23;;;;;;;10.10;3.40;;;;;;;14.15;72.35;99743.11;1695181;84;21184;-79
2022/04/26 18:52:29;;;;;;;14.10;3.35;;;;;;;14.16;72.34;99749.80;1695347;84;21231;-79
2022/04/26 18:55:34;;;;;;;12.58;3.25;;;;;;;14.17;72.28;99752.02;1696681;84;21167;-79
2022/04/26 18:58:33;;;;;;;12.50;3.77;;;;;;;14.21;72.04;99755.50;1695105;83;21251;-79
2022/04/26 19:01:39;;;;;;;10.25;4.10;;;;;;;14.23;71.86;99763.53;1696436;84;21784;-79
2022/04/26 19:04:46;;;;;;;13.13;3.35;;;;;;;14.24;71.87;99763.84;1696866;84;21222;-79